createdAt,value
2019-01-25T00:00:48.805Z,100680.01
2019-01-25T00:03:19.728Z,100684.78
2019-01-25T00:05:50.717Z,100686.81
2019-01-25T00:08:21.416Z,100687.74
2019-01-25T00:10:52.024Z,100688.97
2019-01-25T00:13:22.952Z,100687.42
2019-01-25T00:15:54.034Z,100687.29
2019-01-25T00:18:25.156Z,100687.87
2019-01-25T00:20:56.141Z,100692.33
2019-01-25T00:23:27.622Z,100692.20
2019-01-25T00:25:58.926Z,100686.89
2019-01-25T00:28:29.938Z,100692.59
2019-01-25T00:31:01.027Z,100698.68
2019-01-25T00:33:32.047Z,100702.17
2019-01-25T00:36:03.409Z,100701.95
2019-01-25T00:38:34.828Z,100707.95
2019-01-25T00:41:05.870Z,100702.04
2019-01-25T00:43:36.835Z,100705.08
2019-01-25T00:46:07.650Z,100711.94
2019-01-25T00:48:38.199Z,100709.72
2019-01-25T00:51:09.080Z,100710.60
2019-01-25T00:53:40.144Z,100706.02
2019-01-25T00:56:11.639Z,100712.41
2019-01-25T00:58:43.414Z,100713.34
2019-01-25T01:01:14.993Z,100710.78
2019-01-25T01:03:46.590Z,100711.75
2019-01-25T01:06:18.170Z,100712.63
2019-01-25T01:08:49.289Z,100710.06
2019-01-25T01:11:21.933Z,100706.67
2019-01-25T01:13:52.962Z,100697.98
2019-01-25T01:16:24.537Z,100706.02
2019-01-25T01:18:56.839Z,100703.93
2019-01-25T01:21:28.515Z,100707.69
2019-01-25T01:23:59.286Z,100705.61
2019-01-25T01:26:30.450Z,100709.05
2019-01-25T01:29:01.179Z,100705.22
2019-01-25T01:31:32.025Z,100703.59
2019-01-25T01:34:03.109Z,100699.39
2019-01-25T01:36:34.668Z,100698.20
2019-01-25T01:39:08.099Z,100703.37
2019-01-25T01:41:40.688Z,100700.67
2019-01-25T01:44:12.137Z,100699.88
2019-01-25T01:46:43.576Z,100700.27
2019-01-25T01:49:15.084Z,100704.87
2019-01-25T01:51:46.144Z,100711.41
2019-01-25T01:54:17.659Z,100702.70
2019-01-25T01:56:49.070Z,100701.77
2019-01-25T01:59:20.138Z,100703.11
2019-01-25T02:01:51.299Z,100706.55
2019-01-25T02:04:22.013Z,100701.64
2019-01-25T02:06:53.099Z,100704.25
2019-01-25T02:09:24.250Z,100700.81
2019-01-25T02:11:55.674Z,100695.86
2019-01-25T02:14:26.856Z,100699.48
2019-01-25T02:16:59.215Z,100692.15
2019-01-25T02:19:29.958Z,100698.12
2019-01-25T02:22:01.107Z,100699.08
2019-01-25T02:24:32.615Z,100694.28
2019-01-25T02:27:04.391Z,100691.84
2019-01-25T02:29:35.455Z,100691.00
2019-01-25T02:32:06.862Z,100687.69
2019-01-25T02:34:37.911Z,100688.44
2019-01-25T02:37:09.421Z,100691.45
2019-01-25T02:39:40.555Z,100697.72
2019-01-25T02:42:13.016Z,100693.74
2019-01-25T02:44:44.086Z,100690.92
2019-01-25T02:47:15.253Z,100691.67
2019-01-25T02:49:46.296Z,100692.95
2019-01-25T02:52:17.986Z,100692.81
2019-01-25T02:54:48.784Z,100685.05
2019-01-25T02:57:19.626Z,100687.48
2019-01-25T02:59:50.370Z,100693.74
2019-01-25T03:02:21.031Z,100690.92
2019-01-25T03:04:51.814Z,100690.56
2019-01-25T03:07:22.525Z,100688.63
2019-01-25T03:09:53.333Z,100698.20
2019-01-25T03:12:24.014Z,100690.92
2019-01-25T03:14:54.742Z,100693.74
2019-01-25T03:17:25.898Z,100698.41
2019-01-25T03:19:57.194Z,100696.04
2019-01-25T03:22:27.927Z,100696.84
2019-01-25T03:24:58.678Z,100696.25
2019-01-25T03:27:29.460Z,100699.53
2019-01-25T03:30:00.457Z,100700.36
2019-01-25T03:32:31.390Z,100703.72
2019-01-25T03:35:02.980Z,100702.39
2019-01-25T03:37:34.099Z,100700.36
2019-01-25T03:40:05.994Z,100705.80
2019-01-25T03:42:37.434Z,100706.55
2019-01-25T03:45:08.945Z,100706.67
2019-01-25T03:47:40.404Z,100703.11
2019-01-25T03:50:13.716Z,100707.83
2019-01-25T03:52:45.206Z,100707.95
2019-01-25T03:55:16.381Z,100705.66
2019-01-25T03:57:47.445Z,100704.47
2019-01-25T04:00:21.525Z,100700.81
2019-01-25T04:02:52.681Z,100704.34
2019-01-25T04:05:23.423Z,100707.21
2019-01-25T04:07:54.151Z,100706.09
2019-01-25T04:10:27.045Z,100705.92
2019-01-25T04:12:57.697Z,100710.59
2019-01-25T04:15:31.701Z,100702.70
2019-01-25T04:18:02.488Z,100704.52
2019-01-25T04:20:33.158Z,100703.53
2019-01-25T04:23:05.134Z,100697.66
2019-01-25T04:25:36.244Z,100709.85
2019-01-25T04:28:07.194Z,100702.70
2019-01-25T04:30:38.249Z,100701.83
2019-01-25T04:33:09.006Z,100698.25
2019-01-25T04:35:40.072Z,100697.05
2019-01-25T04:38:11.499Z,100699.53
2019-01-25T04:40:42.648Z,100701.02
2019-01-25T04:43:14.127Z,100703.31
2019-01-25T04:45:46.499Z,100708.22
2019-01-25T04:48:18.462Z,100710.39
2019-01-25T04:50:51.541Z,100710.87
2019-01-25T04:53:22.563Z,100714.89
2019-01-25T04:55:53.727Z,100709.19
2019-01-25T04:58:24.830Z,100715.45
2019-01-25T05:00:55.915Z,100715.50
2019-01-25T05:03:27.369Z,100717.27
2019-01-25T05:05:58.432Z,100722.78
2019-01-25T05:08:30.198Z,100721.98
2019-01-25T05:11:01.645Z,100722.16
2019-01-25T05:13:32.916Z,100724.99
2019-01-25T05:16:03.899Z,100728.91
2019-01-25T05:18:34.945Z,100736.45
2019-01-25T05:21:05.697Z,100737.86
2019-01-25T05:23:36.782Z,100731.25
2019-01-25T05:29:17.840Z,100734.95
2019-01-25T05:31:48.590Z,100739.54
2019-01-25T05:34:19.624Z,100741.18
2019-01-25T05:36:50.524Z,100742.11
2019-01-25T05:39:21.320Z,100737.25
2019-01-25T05:41:54.538Z,100740.03
2019-01-25T05:44:25.455Z,100737.92
2019-01-25T05:46:56.238Z,100738.27
2019-01-25T05:49:27.589Z,100733.54
2019-01-25T05:51:58.669Z,100739.63
2019-01-25T05:54:30.056Z,100736.45
2019-01-25T05:57:02.145Z,100731.72
2019-01-25T05:59:33.253Z,100737.20
2019-01-25T06:02:04.487Z,100732.14
2019-01-25T06:04:36.574Z,100726.70
2019-01-25T06:07:07.748Z,100739.38
2019-01-25T06:09:38.921Z,100745.43
2019-01-25T06:12:09.951Z,100741.19
2019-01-25T06:14:41.022Z,100744.63
2019-01-25T06:17:22.246Z,100740.31
2019-01-25T06:19:53.242Z,100739.38
2019-01-25T06:22:25.147Z,100743.26
2019-01-25T06:24:56.523Z,100746.70
2019-01-25T06:27:27.856Z,100749.53
2019-01-25T06:29:58.940Z,100748.92
2019-01-25T06:32:29.959Z,100752.35
2019-01-25T06:35:01.039Z,100749.03
2019-01-25T06:37:31.790Z,100749.00
2019-01-25T06:40:02.542Z,100755.70
2019-01-25T06:42:33.347Z,100760.84
2019-01-25T06:45:04.093Z,100760.12
2019-01-25T06:47:35.099Z,100752.35
2019-01-25T06:50:06.751Z,100753.28
2019-01-25T06:52:37.780Z,100756.86
2019-01-25T06:55:09.272Z,100755.01
2019-01-25T06:57:50.571Z,100755.84
2019-01-25T07:00:24.510Z,100751.95
2019-01-25T07:02:55.969Z,100755.94
2019-01-25T07:05:27.113Z,100759.51
2019-01-25T07:07:59.502Z,100759.16
2019-01-25T07:10:30.552Z,100760.92
2019-01-25T07:13:02.472Z,100768.00
2019-01-25T07:15:34.486Z,100767.06
2019-01-25T07:18:05.241Z,100762.34
2019-01-25T07:20:35.946Z,100760.39
2019-01-25T07:23:07.141Z,100768.66
2019-01-25T07:25:37.850Z,100774.80
2019-01-25T07:28:08.958Z,100758.28
2019-01-25T07:30:40.063Z,100768.11
2019-01-25T07:33:11.369Z,100768.07
2019-01-25T07:35:42.767Z,100774.34
2019-01-25T07:38:14.209Z,100771.83
2019-01-25T07:40:45.391Z,100760.52
2019-01-25T07:43:17.117Z,100762.42
2019-01-25T07:45:48.707Z,100767.47
2019-01-25T07:48:20.985Z,100764.23
2019-01-25T07:50:53.353Z,100753.86
2019-01-25T07:53:24.783Z,100751.48
2019-01-25T07:55:56.646Z,100745.69
2019-01-25T07:58:28.262Z,100746.05
2019-01-25T08:00:59.413Z,100741.98
2019-01-25T08:03:30.555Z,100745.08
2019-01-25T08:06:02.012Z,100742.34
2019-01-25T08:08:33.606Z,100741.11
2019-01-25T08:11:05.745Z,100740.05
2019-01-25T08:13:37.365Z,100741.86
2019-01-25T08:16:09.725Z,100747.39
2019-01-25T08:18:41.068Z,100739.58
2019-01-25T08:21:14.211Z,100741.33
2019-01-25T08:23:46.421Z,100752.50
2019-01-25T08:26:19.708Z,100758.73
2019-01-25T08:28:51.448Z,100768.27
2019-01-25T08:31:23.165Z,100763.23
2019-01-25T08:33:54.266Z,100762.22
2019-01-25T08:36:30.225Z,100760.14
2019-01-25T08:39:01.374Z,100757.14
2019-01-25T08:41:32.206Z,100748.05
2019-01-25T08:44:03.246Z,100753.80
2019-01-25T08:46:53.708Z,100760.28
2019-01-25T08:49:24.805Z,100766.85
2019-01-25T08:51:55.860Z,100763.38
2019-01-25T08:54:27.575Z,100765.19
2019-01-25T08:56:58.993Z,100760.54
2019-01-25T08:59:31.771Z,100756.83
2019-01-25T09:02:02.897Z,100756.17
2019-01-25T09:04:33.959Z,100765.13
2019-01-25T09:07:04.948Z,100767.58
2019-01-25T09:09:36.207Z,100769.52
2019-01-25T09:12:07.300Z,100774.25
2019-01-25T09:14:38.347Z,100773.08
2019-01-25T09:17:09.467Z,100779.34
2019-01-25T09:19:40.437Z,100768.67
2019-01-25T09:22:11.194Z,100764.70
2019-01-25T09:24:42.286Z,100767.72
2019-01-25T09:27:13.367Z,100765.98
2019-01-25T09:29:44.414Z,100766.47
2019-01-25T09:32:15.872Z,100772.22
2019-01-25T09:34:47.257Z,100772.22
2019-01-25T09:37:18.624Z,100767.94
2019-01-25T09:39:49.449Z,100765.70
2019-01-25T09:42:20.529Z,100765.17
2019-01-25T09:44:52.270Z,100761.25
2019-01-25T09:47:23.547Z,100762.85
2019-01-25T09:49:54.661Z,100764.57
2019-01-25T09:52:26.609Z,100759.56
2019-01-25T09:54:58.189Z,100768.46
2019-01-25T09:57:29.907Z,100774.23
2019-01-25T10:00:01.559Z,100771.07
2019-01-25T10:02:33.050Z,100772.15
2019-01-25T10:05:04.267Z,100770.59
2019-01-25T10:07:35.989Z,100770.86
2019-01-25T10:10:07.582Z,100773.55
2019-01-25T10:12:43.458Z,100783.53
2019-01-25T10:15:15.584Z,100772.31
2019-01-25T10:17:46.295Z,100768.45
2019-01-25T10:20:17.473Z,100770.17
2019-01-25T10:22:48.977Z,100773.22
2019-01-25T10:25:20.546Z,100766.84
2019-01-25T10:27:52.451Z,100768.72
2019-01-25T10:30:25.325Z,100767.60
2019-01-25T10:32:56.769Z,100772.57
2019-01-25T10:35:28.085Z,100770.05
2019-01-25T10:37:59.587Z,100767.06
2019-01-25T10:40:30.707Z,100768.70
2019-01-25T10:43:01.839Z,100757.39
2019-01-25T10:45:36.481Z,100759.02
2019-01-25T10:48:09.193Z,100757.05
2019-01-25T10:50:40.227Z,100748.28
2019-01-25T10:53:11.605Z,100743.63
2019-01-25T10:55:42.345Z,100733.75
2019-01-25T10:58:13.168Z,100738.48
2019-01-25T11:00:43.895Z,100736.67
2019-01-25T11:03:15.386Z,100741.58
2019-01-25T11:05:47.036Z,100738.48
2019-01-25T11:08:18.334Z,100730.49
2019-01-25T11:10:51.190Z,100732.81
2019-01-25T11:13:22.556Z,100732.83
2019-01-25T11:15:54.204Z,100740.59
2019-01-25T11:18:25.855Z,100727.92
2019-01-25T11:20:57.524Z,100727.05
2019-01-25T11:23:29.014Z,100721.86
2019-01-25T11:26:00.425Z,100722.14
2019-01-25T11:28:31.548Z,100720.73
2019-01-25T11:31:02.917Z,100718.27
2019-01-25T11:33:33.941Z,100709.46
2019-01-25T11:36:04.591Z,100705.94
2019-01-25T11:38:35.324Z,100717.09
2019-01-25T11:41:06.420Z,100715.73
2019-01-25T11:43:37.762Z,100705.61
2019-01-25T11:46:08.810Z,100704.17
2019-01-25T11:48:39.890Z,100695.84
2019-01-25T11:51:11.155Z,100694.48
2019-01-25T11:53:42.179Z,100698.05
2019-01-25T11:56:13.279Z,100698.52
2019-01-25T11:58:45.046Z,100692.91
2019-01-25T12:01:16.124Z,100698.72
2019-01-25T12:03:47.238Z,100683.89
2019-01-25T12:06:18.756Z,100684.47
2019-01-25T12:08:50.120Z,100673.27
2019-01-25T12:11:21.127Z,100679.84
2019-01-25T12:13:51.864Z,100671.59
2019-01-25T12:16:23.274Z,100659.12
2019-01-25T12:18:54.491Z,100668.25
2019-01-25T12:21:26.138Z,100661.98
2019-01-25T12:23:57.171Z,100661.25
2019-01-25T12:26:29.343Z,100655.72
2019-01-25T12:29:00.769Z,100662.73
2019-01-25T12:31:32.535Z,100663.68
2019-01-25T12:34:03.910Z,100664.03
2019-01-25T12:36:34.976Z,100667.02
2019-01-25T12:39:09.445Z,100680.31
2019-01-25T12:41:45.342Z,100681.61
2019-01-25T12:44:17.058Z,100679.73
2019-01-25T12:46:53.402Z,100675.62
2019-01-25T12:49:37.732Z,100677.47
2019-01-25T12:52:13.085Z,100667.16
2019-01-25T12:54:45.275Z,100660.55
2019-01-25T12:57:21.197Z,100665.11
2019-01-25T13:00:00.792Z,100657.94
2019-01-25T13:02:32.309Z,100651.31
2019-01-25T13:05:03.681Z,100648.91
2019-01-25T13:07:34.716Z,100650.58
2019-01-25T13:10:07.890Z,100658.29
2019-01-25T13:12:39.695Z,100662.33
2019-01-25T13:15:12.664Z,100655.04
2019-01-25T13:17:43.752Z,100658.61
2019-01-25T13:20:23.500Z,100642.22
2019-01-25T13:22:55.196Z,100650.19
2019-01-25T13:25:26.705Z,100652.14
2019-01-25T13:27:58.678Z,100655.88
2019-01-25T13:30:31.988Z,100654.25
2019-01-25T13:33:03.598Z,100645.59
2019-01-25T13:35:35.416Z,100642.27
2019-01-25T13:38:07.719Z,100639.08
2019-01-25T13:40:38.724Z,100643.73
2019-01-25T13:43:10.140Z,100643.59
2019-01-25T13:45:41.261Z,100647.75
2019-01-25T13:48:12.784Z,100647.81
2019-01-25T13:50:43.827Z,100640.58
2019-01-25T13:53:16.206Z,100639.50
2019-01-25T13:55:47.244Z,100642.72
2019-01-25T13:58:18.883Z,100652.89
2019-01-25T14:00:50.360Z,100649.38
2019-01-25T14:03:21.509Z,100647.79
2019-01-25T14:05:52.676Z,100651.39
2019-01-25T14:08:23.792Z,100645.34
2019-01-25T14:10:54.860Z,100632.41
2019-01-25T14:13:25.961Z,100633.65
2019-01-25T14:15:56.912Z,100625.12
2019-01-25T14:18:28.076Z,100621.30
2019-01-25T14:21:01.881Z,100624.28
2019-01-25T14:23:32.970Z,100623.55
2019-01-25T14:26:03.997Z,100616.55
2019-01-25T14:28:35.420Z,100618.10
2019-01-25T14:31:06.859Z,100610.77
2019-01-25T14:33:37.906Z,100600.72
2019-01-25T14:36:10.828Z,100605.41
2019-01-25T14:38:42.859Z,100607.17
2019-01-25T14:41:13.935Z,100602.09
2019-01-25T14:43:45.341Z,100596.72
2019-01-25T14:46:16.373Z,100588.11
2019-01-25T14:48:47.391Z,100590.64
2019-01-25T14:51:18.132Z,100587.91
2019-01-25T14:53:51.041Z,100590.03
2019-01-25T14:56:21.978Z,100584.28
2019-01-25T14:58:52.758Z,100584.84
2019-01-25T15:01:23.395Z,100586.86
2019-01-25T15:03:54.021Z,100591.39
2019-01-25T15:06:24.955Z,100592.66
2019-01-25T15:08:55.700Z,100581.38
2019-01-25T15:11:26.555Z,100586.38
2019-01-25T15:14:02.281Z,100584.07
2019-01-25T15:16:29.656Z,100571.97
2019-01-25T15:19:00.978Z,100574.59
2019-01-25T15:21:32.149Z,100576.67
2019-01-25T15:24:03.650Z,100579.29
2019-01-25T15:26:35.099Z,100572.93
2019-01-25T15:29:06.228Z,100581.12
2019-01-25T15:31:37.354Z,100574.34
2019-01-25T15:34:08.364Z,100568.77
2019-01-25T15:36:39.644Z,100572.70
2019-01-25T15:39:11.702Z,100570.20
2019-01-25T15:41:44.039Z,100565.25
2019-01-25T15:44:15.025Z,100558.75
2019-01-25T15:46:45.840Z,100554.85
2019-01-25T15:49:16.506Z,100562.89
2019-01-25T15:51:47.567Z,100554.81
2019-01-25T15:54:18.232Z,100551.72
2019-01-25T15:56:48.975Z,100545.64
2019-01-25T15:59:19.798Z,100548.55
2019-01-25T16:01:50.838Z,100552.94
2019-01-25T16:04:21.579Z,100547.91
2019-01-25T16:06:52.953Z,100548.66
2019-01-25T16:09:24.267Z,100550.73
2019-01-25T16:11:55.198Z,100556.66
2019-01-25T16:14:26.098Z,100558.06
2019-01-25T16:16:56.875Z,100567.76
2019-01-25T16:19:27.644Z,100567.50
2019-01-25T16:21:58.751Z,100567.38
2019-01-25T16:24:30.045Z,100559.09
2019-01-25T16:27:00.804Z,100551.51
2019-01-25T16:29:31.572Z,100552.44
2019-01-25T16:32:02.202Z,100545.55
2019-01-25T16:34:32.838Z,100541.72
2019-01-25T16:37:03.500Z,100536.85
2019-01-25T16:39:34.140Z,100522.64
2019-01-25T16:42:04.742Z,100514.65
2019-01-25T16:44:36.398Z,100517.00
2019-01-25T16:47:07.833Z,100523.27
2019-01-25T16:49:38.447Z,100517.75
2019-01-25T16:52:09.456Z,100519.03
2019-01-25T16:54:40.559Z,100515.87
2019-01-25T16:57:11.351Z,100511.08
2019-01-25T16:59:42.060Z,100516.34
2019-01-25T17:02:12.763Z,100518.68
2019-01-25T17:04:44.621Z,100515.99
2019-01-25T17:07:15.744Z,100509.88
2019-01-25T17:09:46.388Z,100504.03
2019-01-25T17:12:17.091Z,100486.44
2019-01-25T17:14:48.109Z,100481.32
2019-01-25T17:17:18.834Z,100487.23
2019-01-25T17:19:49.515Z,100485.55
2019-01-25T17:22:20.592Z,100483.88
2019-01-25T17:24:51.567Z,100492.96
2019-01-25T17:27:22.301Z,100494.23
2019-01-25T17:29:52.896Z,100479.41
2019-01-25T17:32:23.470Z,100475.17
2019-01-25T17:34:54.056Z,100471.02
2019-01-25T17:37:24.858Z,100462.45
2019-01-25T17:39:55.827Z,100465.94
2019-01-25T17:42:28.166Z,100451.06
2019-01-25T17:44:58.932Z,100454.94
2019-01-25T17:47:29.659Z,100453.39
2019-01-25T17:50:00.380Z,100450.42
2019-01-25T17:52:31.187Z,100447.55
2019-01-25T17:55:02.108Z,100454.79
2019-01-25T17:57:32.856Z,100452.70
2019-01-25T18:00:04.419Z,100460.47
2019-01-25T18:02:35.322Z,100466.98
2019-01-25T18:05:06.486Z,100459.75
2019-01-25T18:07:37.233Z,100448.71
2019-01-25T18:10:10.938Z,100442.31
2019-01-25T18:12:41.923Z,100438.95
2019-01-25T18:15:13.527Z,100429.23
2019-01-25T18:17:44.256Z,100429.27
2019-01-25T18:20:16.737Z,100415.78
2019-01-25T18:22:48.019Z,100414.17
2019-01-25T18:25:24.874Z,100410.37
2019-01-25T18:28:00.666Z,100416.85
2019-01-25T18:30:37.839Z,100427.22
2019-01-25T18:33:08.775Z,100427.26
2019-01-25T18:35:39.614Z,100437.22
2019-01-25T18:38:10.840Z,100426.97
2019-01-25T18:40:41.479Z,100412.08
2019-01-25T18:43:12.280Z,100416.84
2019-01-25T18:45:43.065Z,100413.08
2019-01-25T18:48:14.285Z,100415.64
2019-01-25T18:50:45.239Z,100400.31
2019-01-25T18:53:16.703Z,100397.83
2019-01-25T18:55:47.490Z,100393.58
2019-01-25T18:58:18.265Z,100389.37
2019-01-25T19:00:49.191Z,100383.45
2019-01-25T19:03:19.998Z,100379.65
2019-01-25T19:05:51.426Z,100383.56
2019-01-25T19:08:22.694Z,100378.08
2019-01-25T19:10:53.425Z,100372.59
2019-01-25T19:13:24.155Z,100376.10
2019-01-25T19:15:55.006Z,100373.98
2019-01-25T19:18:25.858Z,100371.90
2019-01-25T19:20:56.821Z,100358.32
2019-01-25T19:23:27.953Z,100344.30
2019-01-25T19:25:58.738Z,100343.13
2019-01-25T19:28:29.840Z,100320.98
2019-01-25T19:31:00.841Z,100320.18
2019-01-25T19:33:31.556Z,100306.16
2019-01-25T19:36:02.343Z,100299.31
2019-01-25T19:38:33.797Z,100290.89
2019-01-25T19:41:05.057Z,100283.23
2019-01-25T19:43:36.009Z,100284.48
2019-01-25T19:46:06.862Z,100279.36
2019-01-25T19:48:38.174Z,100269.55
2019-01-25T19:51:10.517Z,100262.73
2019-01-25T19:53:41.438Z,100261.09
2019-01-25T19:56:12.192Z,100255.22
2019-01-25T19:58:43.220Z,100250.97
2019-01-25T20:01:14.047Z,100242.04
2019-01-25T20:03:45.191Z,100244.20
2019-01-25T20:06:15.928Z,100234.85
2019-01-25T20:08:46.611Z,100224.70
2019-01-25T20:11:17.478Z,100214.92
2019-01-25T20:13:48.504Z,100209.42
2019-01-25T20:16:19.694Z,100210.41
2019-01-25T20:18:50.379Z,100212.56
2019-01-25T20:21:21.503Z,100209.13
2019-01-25T20:23:52.242Z,100202.68
2019-01-25T20:26:23.381Z,100203.96
2019-01-25T20:28:54.502Z,100203.59
2019-01-25T20:31:25.907Z,100191.58
2019-01-25T20:33:57.002Z,100186.92
2019-01-25T20:36:27.938Z,100190.74
2019-01-25T20:38:58.725Z,100188.62
2019-01-25T20:41:29.478Z,100167.67
2019-01-25T20:44:00.416Z,100169.92
2019-01-25T20:46:31.249Z,100170.73
2019-01-25T20:49:02.098Z,100162.27
2019-01-25T20:51:32.756Z,100158.92
2019-01-25T20:54:03.571Z,100148.77
2019-01-25T20:56:34.317Z,100137.20
2019-01-25T20:59:05.033Z,100135.95
2019-01-25T21:01:35.862Z,100130.91
2019-01-25T21:04:06.687Z,100121.13
2019-01-25T21:06:37.742Z,100117.28
2019-01-25T21:09:11.527Z,100124.16
2019-01-25T21:11:42.331Z,100116.56
2019-01-25T21:14:13.441Z,100112.81
2019-01-25T21:16:44.581Z,100102.18
2019-01-25T21:19:15.412Z,100097.61
2019-01-25T21:21:46.220Z,100086.88
2019-01-25T21:24:17.611Z,100083.12
2019-01-25T21:26:48.325Z,100080.22
2019-01-25T21:29:19.278Z,100083.59
2019-01-25T21:31:50.069Z,100082.41
2019-01-25T21:34:20.861Z,100068.86
2019-01-25T21:36:51.507Z,100064.13
2019-01-25T21:39:22.402Z,100049.33
2019-01-25T21:41:53.470Z,100045.13
2019-01-25T21:44:25.227Z,100052.04
2019-01-25T21:46:56.817Z,100049.88
2019-01-25T21:49:28.366Z,100045.88
2019-01-25T21:51:59.571Z,100043.38
2019-01-25T21:54:30.685Z,100032.81
2019-01-25T21:57:02.098Z,100024.30
2019-01-25T21:59:33.362Z,100024.47
2019-01-25T22:02:04.430Z,100018.62
2019-01-25T22:04:35.928Z,100011.80
2019-01-25T22:07:07.132Z,100008.50
2019-01-25T22:09:38.224Z,99999.70
2019-01-25T22:12:09.616Z,100000.55
2019-01-25T22:14:40.603Z,99997.20
2019-01-25T22:17:12.141Z,99987.35
2019-01-25T22:19:43.025Z,99975.98
2019-01-25T22:22:14.783Z,99972.55
2019-01-25T22:24:46.914Z,99961.48
2019-01-25T22:27:19.031Z,99960.27
2019-01-25T22:29:50.885Z,99949.62
2019-01-25T22:32:33.642Z,99948.59
2019-01-25T22:35:09.780Z,99953.41
2019-01-25T22:37:41.656Z,99940.16
2019-01-25T22:40:17.457Z,99939.81
2019-01-25T22:42:49.373Z,99935.55
2019-01-25T22:45:23.604Z,99923.61
2019-01-25T22:47:57.386Z,99916.80
2019-01-25T22:50:34.984Z,99922.05
2019-01-25T22:53:07.350Z,99908.87
2019-01-25T22:55:38.366Z,99904.14
2019-01-25T22:58:09.554Z,99898.59
2019-01-25T23:00:59.936Z,99875.20
2019-01-25T23:04:23.704Z,99875.20
2019-01-25T23:07:10.097Z,99867.69
2019-01-25T23:10:04.205Z,99860.46
2019-01-25T23:12:36.020Z,99856.72
2019-01-25T23:15:10.104Z,99849.95
2019-01-25T23:17:41.471Z,99853.29
2019-01-25T23:20:14.036Z,99852.59
2019-01-25T23:22:45.086Z,99841.50
2019-01-25T23:25:16.047Z,99851.13
2019-01-25T23:27:47.200Z,99836.18
2019-01-25T23:30:19.275Z,99831.33
2019-01-25T23:32:50.028Z,99830.23
2019-01-25T23:35:20.824Z,99825.09
2019-01-25T23:37:51.505Z,99817.00
2019-01-25T23:40:22.293Z,99813.58
2019-01-25T23:42:53.317Z,99804.11
2019-01-25T23:45:24.328Z,99797.73
2019-01-25T23:47:55.369Z,99793.93
2019-01-25T23:50:27.014Z,99796.92
2019-01-25T23:52:59.281Z,99793.11
2019-01-25T23:55:30.456Z,99791.36
2019-01-25T23:58:02.167Z,99774.77
